Time;durP1;ratioP1;P1;durP2;ratioP2;P2;SDS_P1;SDS_P2;PMS_P1;PMS_P2;Temp;Humidity;BMP_temperature;BMP_pressure;BME280_temperature;BME280_humidity;BME280_pressure;Samples;Min_cycle;Max_cycle;Signal;HPM_P1;HPM_P2
2022/11/25 00:00:43;;;;;;;15.35;8.52;;;7.50;61.60;;;6.00;64.66;101213.06;12170352;19;20391;-88
2022/11/25 00:04:44;;;;;;;14.75;8.77;;;7.50;61.50;;;6.11;64.58;101217.94;12170111;19;20283;-88
2022/11/25 00:08:50;;;;;;;15.25;9.02;;;7.50;61.50;;;6.05;64.88;101206.03;12170470;19;20042;-88
2022/11/25 00:12:52;;;;;;;14.82;8.85;;;7.50;61.60;;;6.06;64.67;101215.47;12171044;19;20402;-88
2022/11/25 00:16:54;;;;;;;14.75;8.80;;;7.50;61.50;;;6.06;64.89;101219.81;12172777;19;20025;-88
2022/11/25 00:20:57;;;;;;;16.33;9.30;;;7.50;61.60;;;6.08;64.84;101224.06;12173849;19;20015;-88
2022/11/25 00:24:58;;;;;;;15.90;9.77;;;7.50;62.40;;;6.15;64.89;101230.75;12172299;19;20113;-89
2022/11/25 00:29:04;;;;;;;16.75;9.95;;;7.60;61.80;;;6.11;64.78;101217.94;12171664;19;20117;-88
2022/11/25 00:33:05;;;;;;;;;;;7.60;61.90;;;6.11;64.50;101229.16;12166072;19;20524;-88
2022/11/25 00:37:07;;;;;;;14.25;7.78;;;7.60;61.80;;;6.20;64.62;101233.22;12168138;19;19915;-88
2022/11/25 00:45:29;;;;;;;13.98;8.38;;;7.70;61.60;;;5.91;64.82;101185.66;12166877;19;20030;-88
2022/11/25 00:49:31;;;;;;;14.98;8.85;;;7.60;61.60;;;5.99;64.74;101208.75;12174251;19;20018;-88
2022/11/25 00:53:33;;;;;;;16.95;9.10;;;7.60;61.60;;;6.04;64.76;101216.41;12198073;19;20026;-88
2022/11/25 00:57:35;;;;;;;14.27;8.85;;;7.60;61.60;;;5.98;64.80;101204.47;12190301;19;20471;-88
2022/11/25 01:01:37;;;;;;;16.33;8.48;;;7.60;61.80;;;6.19;64.82;101242.75;12188394;19;20015;-88
2022/11/25 01:05:39;;;;;;;15.82;8.75;;;7.60;61.70;;;6.11;64.86;101218.78;12194852;19;20097;-88
2022/11/25 01:09:41;;;;;;;13.90;8.45;;;7.60;61.60;;;6.19;64.67;101237.56;12187109;19;20014;-87
2022/11/25 01:13:43;;;;;;;13.30;8.40;;;7.60;61.70;;;6.16;64.71;101231.63;12164102;19;20019;-87
2022/11/25 01:17:45;;;;;;;12.48;8.02;;;7.60;61.50;;;6.23;64.87;101242.66;12166053;19;20019;-88
2022/11/25 01:21:48;;;;;;;14.60;8.05;;;7.60;61.50;;;6.24;64.87;101241.75;12164303;19;20018;-88
2022/11/25 01:25:50;;;;;;;12.52;7.45;;;7.60;61.50;;;6.18;64.79;101235.00;12166841;19;20302;-88
2022/11/25 01:29:51;;;;;;;15.18;9.05;;;7.60;61.50;;;6.08;64.93;101218.03;12168160;19;20022;-88
2022/11/25 01:34:13;;;;;;;15.52;9.20;;;7.60;61.50;;;6.20;64.83;101238.41;12165261;19;20379;-88
2022/11/25 01:38:15;;;;;;;14.60;8.88;;;7.60;61.60;;;6.10;64.88;101217.13;12170906;19;20480;-88
2022/11/25 01:42:18;;;;;;;12.68;8.38;;;7.60;61.30;;;6.18;64.83;101222.94;12160675;19;20026;-87
2022/11/25 01:46:29;;;;;;;14.18;8.75;;;7.60;61.20;;;6.17;64.70;101222.94;12168004;19;20025;-88
2022/11/25 01:50:33;;;;;;;17.42;9.02;;;7.60;61.20;;;6.18;64.63;101229.81;12167782;19;20015;-88
2022/11/25 01:54:48;;;;;;;14.25;8.57;;;7.80;61.30;;;6.08;64.49;101213.69;12168302;19;20290;-88
2022/11/25 01:58:49;;;;;;;14.38;9.02;;;7.50;61.00;;;6.05;64.49;101210.31;12169912;19;20453;-88
2022/11/25 02:02:56;;;;;;;14.30;9.18;;;7.50;61.00;;;6.07;64.62;101213.72;12167947;19;20018;-88
2022/11/25 02:07:08;;;;;;;13.63;8.43;;;7.50;61.00;;;5.98;64.68;101196.72;12168902;19;20022;-88
2022/11/25 02:11:11;;;;;;;15.45;7.68;;;7.50;61.10;;;5.73;64.59;101157.66;12164418;19;20383;-88
2022/11/25 02:15:14;;;;;;;13.05;8.32;;;7.50;61.20;;;5.58;64.68;101126.97;12166875;19;20034;-88
2022/11/25 02:19:43;;;;;;;12.65;8.00;;;7.70;61.60;;;5.90;64.59;101188.28;12167026;19;20024;-88
2022/11/25 02:23:58;;;;;;;16.65;8.80;;;7.40;61.50;;;6.00;64.73;101202.72;12161195;19;21080;-88
2022/11/25 02:28:16;;;;;;;10.45;6.95;;;7.50;61.40;;;5.97;64.85;101201.06;12163393;19;20018;-89
2022/11/25 02:32:21;;;;;;;12.23;7.22;;;7.40;61.20;;;6.02;64.91;101202.63;12154463;19;20014;-88
2022/11/25 02:36:23;;;;;;;15.55;8.55;;;7.70;61.60;;;6.05;64.90;101199.97;12169168;19;20135;-88
2022/11/25 02:40:27;;;;;;;14.57;8.63;;;7.50;61.50;;;5.99;64.73;101188.03;12172714;19;20781;-88
2022/11/25 02:44:30;;;;;;;12.93;7.65;;;7.50;61.50;;;6.03;64.66;101181.88;12172344;19;20014;-88
2022/11/25 02:48:35;;;;;;;15.68;8.73;;;7.50;61.50;;;5.92;64.63;101168.34;12166491;19;20035;-88
2022/11/25 02:52:39;;;;;;;15.18;8.15;;;7.50;61.20;;;6.03;64.71;101194.84;12167944;19;20562;-88
2022/11/25 02:56:40;;;;;;;13.68;7.68;;;7.50;61.10;;;6.05;64.60;101199.97;12170912;19;20902;-88
2022/11/25 03:00:44;;;;;;;17.58;9.52;;;7.50;61.00;;;5.88;64.68;101170.16;12163529;19;20029;-88
2022/11/25 03:04:46;;;;;;;13.75;8.32;;;7.70;61.10;;;5.95;64.78;101187.28;12170381;19;20014;-88
2022/11/25 03:08:48;;;;;;;11.52;7.55;;;7.40;60.90;;;5.97;64.90;101195.03;12162587;19;20042;-87
2022/11/25 03:12:50;;;;;;;12.27;7.93;;;7.40;61.10;;;6.04;64.88;101217.25;12162948;19;20022;-88
2022/11/25 03:16:52;;;;;;;15.30;8.38;;;7.40;61.10;;;6.02;64.76;101220.78;12171482;19;20602;-87
2022/11/25 03:20:55;;;;;;;15.15;8.77;;;7.40;61.20;;;6.01;64.68;101217.34;12173725;19;20027;-87
2022/11/25 03:24:59;;;;;;;15.13;8.88;;;7.40;61.30;;;5.88;64.79;101190.03;12172849;19;20379;-87
2022/11/25 03:29:01;;;;;;;13.63;8.48;;;7.40;61.20;;;5.99;64.81;101208.75;12170579;19;20580;-88
2022/11/25 03:33:03;;;;;;;14.98;8.07;;;7.50;61.10;;;5.71;64.63;101169.78;12167828;19;20398;-87
2022/11/25 03:37:07;;;;;;;11.57;7.53;;;7.50;61.20;;;5.90;64.72;101204.66;12172555;19;20022;-87
2022/11/25 03:41:09;;;;;;;14.27;8.13;;;7.40;61.20;;;6.02;64.90;101219.03;12173160;19;20490;-87
2022/11/25 03:45:14;;;;;;;15.68;9.07;;;7.40;61.40;;;6.03;64.70;101225.94;12173012;19;20025;-87
2022/11/25 03:49:16;;;;;;;15.38;8.18;;;7.40;62.10;;;5.98;64.87;101212.25;12166836;19;20033;-87
2022/11/25 03:53:18;;;;;;;14.38;8.77;;;7.40;61.40;;;6.01;64.96;101226.88;12156837;19;20038;-87
2022/11/25 03:57:20;;;;;;;15.00;8.95;;;7.40;61.50;;;6.03;64.64;101225.09;12166625;19;20019;-87
2022/11/25 04:01:22;;;;;;;15.55;8.95;;;7.40;61.50;;;5.76;64.79;101178.28;12162828;19;20129;-88
2022/11/25 04:05:25;;;;;;;14.40;8.75;;;7.50;61.40;;;6.02;64.82;101225.97;12170588;19;20019;-87
2022/11/25 04:09:29;;;;;;;13.65;8.77;;;7.50;61.30;;;5.93;64.86;101219.28;12172800;19;20038;-87
2022/11/25 04:13:34;;;;;;;11.90;7.82;;;7.40;61.30;;;6.05;64.70;101241.44;12171521;19;20055;-87
2022/11/25 04:17:37;;;;;;;16.88;9.18;;;7.40;61.40;;;5.96;64.70;101227.84;12171209;19;20037;-87
2022/11/25 04:21:39;;;;;;;17.95;10.48;;;7.50;61.50;;;5.64;64.78;101171.69;12166173;19;20021;-87
2022/11/25 04:25:41;;;;;;;15.45;9.63;;;7.50;61.40;;;5.89;64.70;101234.06;12171863;19;20023;-88
2022/11/25 04:29:49;;;;;;;14.30;8.48;;;7.40;61.20;;;6.00;64.65;101239.00;12171524;19;20026;-87
2022/11/25 04:33:51;;;;;;;12.70;7.68;;;7.70;61.60;;;5.85;64.81;101224.66;12162379;19;20025;-87
2022/11/25 04:37:53;;;;;;;12.65;7.32;;;7.40;61.30;;;5.94;64.83;101231.38;12166076;19;20106;-88
2022/11/25 04:46:23;;;;;;;9.90;6.80;;;7.40;61.70;;;5.94;64.64;101244.31;12181047;19;20022;-87
2022/11/25 04:50:26;;;;;;;12.05;8.27;;;7.50;62.00;;;5.65;64.86;101195.88;12170209;19;21109;-87
2022/11/25 04:54:45;;;;;;;11.93;7.88;;;7.40;61.90;;;5.92;64.89;101241.75;12172099;19;20414;-87
2022/11/25 05:03:11;;;;;;;13.13;7.97;;;7.50;62.00;;;5.95;64.70;101251.22;12169021;19;20018;-88
2022/11/25 05:07:17;;;;;;;13.18;7.63;;;7.40;61.90;;;6.02;64.64;101257.94;12184015;19;20018;-88
2022/11/25 05:11:21;;;;;;;14.98;8.45;;;7.40;61.80;;;5.83;64.89;101233.38;12183297;19;20015;-87
2022/11/25 05:15:25;;;;;;;14.50;7.05;;;7.50;61.90;;;6.00;64.95;101266.66;12190107;19;20018;-88
2022/11/25 05:19:28;;;;;;;13.63;8.48;;;7.40;61.80;;;5.97;64.62;101257.22;12196474;19;20886;-87
2022/11/25 05:23:31;;;;;;;16.55;8.30;;;7.40;61.90;;;5.88;64.89;101247.91;12191512;19;20494;-87
2022/11/25 05:27:34;;;;;;;14.38;7.28;;;7.40;61.80;;;5.75;64.90;101225.81;12178361;19;20135;-87
2022/11/25 05:31:41;;;;;;;12.48;8.20;;;7.40;61.80;;;6.03;64.90;101270.00;12182859;19;20375;-87
2022/11/25 05:35:43;;;;;;;15.23;7.53;;;7.40;61.80;;;5.94;64.78;101268.53;12197606;19;20022;-88
2022/11/25 05:39:45;;;;;;;10.82;6.90;;;7.60;62.00;;;5.84;64.90;101246.31;12188754;19;20029;-87
2022/11/25 05:44:09;;;;;;;12.15;7.13;;;7.40;61.90;;;5.88;64.78;101247.91;12181641;19;21137;-87
2022/11/25 05:48:13;;;;;;;13.48;7.70;;;7.40;62.00;;;5.94;64.85;101249.50;12177297;19;20015;-88
2022/11/25 05:52:16;;;;;;;11.63;6.65;;;7.40;62.00;;;6.04;64.82;101269.09;12181403;19;20015;-88
2022/11/25 05:56:26;;;;;;;12.75;7.50;;;7.40;62.00;;;6.11;64.96;101283.63;12182431;19;20803;-87
2022/11/25 06:00:42;;;;;;;13.30;7.32;;;7.50;62.20;;;5.97;64.86;101257.22;12181656;19;20014;-88
2022/11/25 06:04:47;;;;;;;13.05;6.93;;;7.50;62.10;;;6.04;64.86;101256.16;12176831;19;20417;-88
2022/11/25 06:08:49;;;;;;;11.68;7.70;;;7.50;62.10;;;6.16;64.94;101286.09;12178463;19;20015;-88
2022/11/25 06:12:52;;;;;;;14.25;8.32;;;7.50;62.10;;;6.02;64.99;101259.69;12182233;19;20468;-87
2022/11/25 06:16:54;;;;;;;14.18;7.32;;;7.50;62.10;;;6.18;64.91;101290.34;12180008;19;20019;-87
2022/11/25 06:21:06;;;;;;;9.45;6.63;;;7.50;62.00;;;6.14;65.00;101280.94;12176028;19;21014;-89
2022/11/25 06:25:09;;;;;;;14.20;8.63;;;7.50;62.10;;;6.17;64.84;101285.19;12179393;19;20022;-88
2022/11/25 06:29:13;;;;;;;11.70;7.82;;;7.60;62.20;;;6.09;65.05;101266.41;12183297;19;20590;-87
2022/11/25 06:33:20;;;;;;;12.27;7.15;;;7.60;62.30;;;6.11;64.94;101273.25;12181263;19;20019;-87
2022/11/25 06:37:23;;;;;;;12.70;7.57;;;7.60;62.10;;;6.20;64.88;101291.13;12190297;19;20025;-88
2022/11/25 06:41:25;;;;;;;14.52;8.00;;;7.60;62.10;;;6.20;64.85;101291.13;12174092;19;20030;-87
2022/11/25 06:45:27;;;;;;;15.02;7.90;;;7.60;62.00;;;6.05;64.79;101263.06;12156362;19;20029;-87
2022/11/25 06:49:29;;;;;;;14.50;9.07;;;7.60;62.00;;;6.18;64.83;101282.56;12162046;19;20015;-85
2022/11/25 06:53:32;;;;;;;13.60;8.38;;;7.60;62.20;;;6.11;64.86;101267.22;12155172;19;20409;-86
2022/11/25 06:57:34;;;;;;;13.23;7.82;;;7.60;62.20;;;6.15;64.73;101274.84;12156987;19;20288;-87
2022/11/25 07:01:37;;;;;;;11.32;8.00;;;7.60;62.30;;;6.19;65.04;101297.22;12138571;19;20306;-85
2022/11/25 07:05:38;;;;;;;12.02;7.75;;;7.60;62.40;;;6.06;64.87;101272.53;12147492;19;20868;-87
2022/11/25 07:09:40;;;;;;;11.45;7.45;;;7.60;62.30;;;6.19;65.06;101299.81;12142948;19;20558;-86
2022/11/25 07:13:43;;;;;;;11.65;7.10;;;7.60;62.30;;;6.05;64.84;101281.19;12146571;19;20910;-87
2022/11/25 07:17:45;;;;;;;12.32;8.05;;;7.80;62.70;;;6.20;65.18;101306.69;12157892;19;20014;-86
2022/11/25 07:21:47;;;;;;;12.35;7.50;;;7.80;62.80;;;6.09;65.13;101297.50;12152595;19;20619;-86
2022/11/25 07:25:48;;;;;;;11.02;7.22;;;7.60;62.50;;;6.05;65.11;101296.75;12159545;19;20737;-86
2022/11/25 07:29:50;;;;;;;12.45;7.35;;;7.60;62.60;;;6.25;65.07;101329.06;12166619;19;20023;-87
2022/11/25 07:33:54;;;;;;;12.43;7.22;;;7.70;62.80;;;6.13;65.20;101314.66;12174235;19;20011;-87
2022/11/25 07:37:56;;;;;;;11.95;7.68;;;7.60;62.70;;;6.19;65.19;101320.56;12169313;19;20555;-87
2022/11/25 07:41:58;;;;;;;14.95;7.90;;;7.60;62.90;;;6.17;65.13;101322.34;12166706;19;20397;-87
2022/11/25 07:46:22;;;;;;;9.80;7.43;;;7.60;62.80;;;6.25;65.21;101340.28;12158443;19;20921;-87
2022/11/25 07:50:23;;;;;;;10.88;6.05;;;7.70;62.80;;;6.11;65.18;101332.88;12176738;19;20071;-85
2022/11/25 07:54:25;;;;;;;10.80;6.97;;;7.70;62.90;;;6.31;65.21;101360.00;12173616;19;20022;-86
2022/11/25 07:58:27;;;;;;;14.57;7.90;;;7.70;63.30;;;6.24;65.20;101332.53;12173966;19;20033;-87
2022/11/25 08:02:29;;;;;;;8.40;6.13;;;7.70;63.40;;;6.02;65.13;101301.16;12174119;19;20015;-87
2022/11/25 08:06:30;;;;;;;8.65;6.15;;;7.70;63.30;;;6.31;65.01;101357.41;12168856;19;20018;-86
2022/11/25 08:10:32;;;;;;;9.55;5.78;;;7.70;63.30;;;6.31;65.22;101332.31;12174204;19;20658;-86
2022/11/25 08:14:34;;;;;;;9.13;6.07;;;7.70;63.40;;;6.03;65.17;101288.16;12171365;19;20046;-86
2022/11/25 08:18:36;;;;;;;7.63;5.97;;;7.70;63.40;;;6.37;64.99;101328.72;12175672;19;20367;-87
2022/11/25 08:22:38;;;;;;;11.10;5.55;;;7.80;63.60;;;6.45;65.10;101346.66;12165036;19;20330;-87
2022/11/25 08:26:39;;;;;;;6.38;5.00;;;8.00;63.80;;;6.37;65.36;101333.91;12165912;19;20465;-87
2022/11/25 08:30:42;;;;;;;6.55;5.32;;;8.00;63.80;;;6.44;65.21;101348.41;12170602;19;20038;-87
2022/11/25 08:34:44;;;;;;;6.88;5.78;;;7.80;63.70;;;6.45;65.21;101341.47;12165529;19;20046;-87
2022/11/25 08:38:51;;;;;;;9.20;5.35;;;7.90;63.80;;;6.50;65.19;101339.59;12170221;19;20014;-86
2022/11/25 08:42:53;;;;;;;6.72;5.55;;;7.90;64.00;;;6.43;65.31;101328.56;12166294;19;20920;-87
2022/11/25 08:46:55;;;;;;;5.97;4.97;;;7.90;63.90;;;6.48;65.31;101336.19;12169155;19;20030;-88
2022/11/25 08:50:56;;;;;;;8.15;5.88;;;8.00;64.00;;;6.38;65.33;101325.25;12170153;19;20010;-86
2022/11/25 08:54:58;;;;;;;7.22;5.88;;;8.00;64.00;;;6.57;65.34;101349.75;12175586;19;20014;-86
2022/11/25 08:59:00;;;;;;;7.15;5.35;;;8.00;64.00;;;6.33;65.37;101309.78;12176526;19;20825;-87
2022/11/25 09:03:02;;;;;;;6.38;5.32;;;8.00;64.20;;;6.64;65.28;101353.03;12162820;19;20740;-87
2022/11/25 09:07:05;;;;;;;6.72;5.35;;;8.10;64.20;;;6.78;65.43;101370.81;12160901;19;20019;-87
2022/11/25 09:11:08;;;;;;;5.57;4.63;;;8.10;64.30;;;6.46;65.45;101312.06;12162976;19;20886;-87
2022/11/25 09:15:10;;;;;;;9.95;5.47;;;8.20;64.40;;;6.64;65.33;101345.22;12158836;19;20367;-87
2022/11/25 09:19:12;;;;;;;5.32;4.78;;;8.20;64.50;;;6.80;65.46;101364.66;12161515;19;20119;-87
2022/11/25 09:23:13;;;;;;;7.25;4.53;;;8.20;64.40;;;6.83;65.52;101366.31;12172163;19;21005;-87
2022/11/25 09:27:15;;;;;;;5.95;4.70;;;8.30;64.60;;;6.83;65.24;101359.41;12168119;19;20097;-87
2022/11/25 09:31:17;;;;;;;5.60;4.97;;;8.30;64.50;;;6.85;65.50;101354.16;12163151;19;20021;-87
2022/11/25 09:35:21;;;;;;;6.50;5.50;;;8.40;64.60;;;6.86;65.32;101358.47;12170128;19;20433;-87
2022/11/25 09:39:28;;;;;;;6.15;4.72;;;8.40;64.60;;;7.01;65.55;101378.75;12168527;19;21729;-87
2022/11/25 09:49:11;;;;;;;7.07;5.10;;;8.50;64.80;;;7.01;65.58;101362.34;12165557;19;20011;-87
2022/11/25 09:53:40;;;;;;;11.77;5.68;;;8.50;64.70;;;7.13;65.58;101376.69;12153057;19;20019;-87
2022/11/25 09:58:20;;;;;;;6.50;5.53;;;8.50;64.80;;;7.02;65.48;101351.91;12164716;19;20090;-87
2022/11/25 10:02:48;;;;;;;6.40;5.32;;;8.60;64.80;;;7.22;65.51;101373.81;12162664;19;20037;-87
2022/11/25 10:07:00;;;;;;;5.63;4.93;;;8.60;64.90;;;7.05;65.52;101337.97;12166320;19;20014;-87
2022/11/25 10:11:27;;;;;;;8.52;6.10;;;8.60;65.00;;;7.28;65.54;101377.06;12162106;19;20323;-87
2022/11/25 10:15:38;;;;;;;7.55;6.15;;;8.70;65.10;;;7.23;65.52;101354.72;12165797;19;20046;-87
2022/11/25 10:20:03;;;;;;;10.48;7.35;;;8.80;65.50;;;7.36;65.50;101371.63;12161920;19;20014;-87
2022/11/25 10:24:13;;;;;;;8.00;6.50;;;8.70;65.30;;;7.42;65.61;101368.00;12166049;19;20098;-88
2022/11/25 10:28:21;;;;;;;8.05;6.10;;;8.80;65.30;;;7.46;65.76;101354.84;12164197;19;20347;-87
2022/11/25 10:32:27;;;;;;;8.82;6.65;;;8.90;65.50;;;7.47;65.62;101350.50;12169134;19;20026;-88
2022/11/25 10:36:35;;;;;;;8.25;6.43;;;8.90;65.60;;;7.50;65.50;101350.41;12166716;19;20472;-87
2022/11/25 10:40:37;;;;;;;9.50;6.68;;;9.10;65.90;;;7.59;65.63;101352.72;12156565;19;20022;-87
2022/11/25 10:44:40;;;;;;;8.57;5.95;;;9.00;65.90;;;7.36;65.87;101305.84;12156980;19;20021;-87
2022/11/25 10:48:51;;;;;;;8.45;6.07;;;9.00;65.60;;;7.70;65.75;101360.16;12161044;19;20015;-87
2022/11/25 10:53:24;;;;;;;10.68;7.50;;;9.10;65.60;;;7.69;65.78;101354.09;12157865;19;20019;-87
2022/11/25 10:57:28;;;;;;;7.75;6.00;;;9.10;66.50;;;7.77;65.87;101353.84;12163721;19;20505;-86
2022/11/25 11:01:30;;;;;;;7.28;5.32;;;9.20;66.00;;;7.81;65.80;101360.66;12167390;19;20026;-87
2022/11/25 11:05:32;;;;;;;7.53;5.93;;;9.20;65.90;;;7.81;65.71;101354.63;12184756;19;20355;-85
2022/11/25 11:09:39;;;;;;;9.45;7.32;;;9.20;65.90;;;7.86;65.71;101356.16;12177236;19;20391;-87
2022/11/25 11:13:42;;;;;;;9.95;7.95;;;9.30;66.10;;;7.87;65.72;101355.25;12166049;19;20014;-86
2022/11/25 11:17:44;;;;;;;14.27;8.07;;;9.30;66.00;;;7.80;65.91;101332.94;12166745;19;20478;-87
2022/11/25 11:21:46;;;;;;;8.43;6.78;;;9.40;66.10;;;7.97;65.75;101351.44;12157294;19;20489;-87
2022/11/25 11:25:58;;;;;;;9.48;7.47;;;9.30;65.80;;;7.96;65.96;101339.31;12169435;19;20493;-87
2022/11/25 11:30:19;;;;;;;9.43;7.30;;;9.40;65.90;;;8.07;65.84;101357.16;12168453;19;20007;-87
2022/11/25 11:35:23;;;;;;;10.27;7.10;;;9.50;66.80;;;8.13;66.05;101353.50;12172825;19;20011;-86
2022/11/25 11:39:35;;;;;;;8.07;6.45;;;9.50;66.20;;;8.19;65.85;101348.94;12171263;19;20493;-87
2022/11/25 11:44:17;;;;;;;9.20;6.47;;;9.60;66.10;;;8.22;65.95;101347.97;12159166;19;20035;-86
2022/11/25 11:48:54;;;;;;;9.98;6.60;;;9.60;66.10;;;8.27;65.80;101353.88;12169177;19;20014;-85
2022/11/25 11:53:53;;;;;;;9.93;7.47;;;9.70;66.10;;;8.32;66.01;101353.72;12162075;19;20026;-86
2022/11/25 11:58:29;;;;;;;9.80;7.30;;;9.70;66.20;;;8.35;65.93;101349.25;12170910;19;20383;-88
2022/11/25 12:02:39;;;;;;;13.63;8.80;;;9.70;66.10;;;8.41;66.04;101351.66;12159457;19;20052;-87
2022/11/25 12:06:48;;;;;;;13.10;8.63;;;10.00;66.50;;;8.44;65.95;101353.28;12158741;19;20014;-87
2022/11/25 12:10:56;;;;;;;11.40;8.40;;;9.80;66.10;;;8.39;66.04;101339.59;12164131;19;20040;-87
2022/11/25 12:15:23;;;;;;;11.65;8.32;;;9.90;66.10;;;8.50;65.90;101347.00;12162381;19;20011;-87
2022/11/25 12:19:51;;;;;;;12.15;8.43;;;9.90;66.10;;;8.44;65.98;101326.41;12169471;19;20010;-87
2022/11/25 12:24:24;;;;;;;12.30;8.45;;;9.90;66.00;;;8.44;65.85;101326.41;12167572;19;20443;-87
2022/11/25 12:28:41;;;;;;;16.45;9.07;;;9.90;66.10;;;8.45;65.94;101315.09;12170013;19;20010;-87
2022/11/25 12:32:57;;;;;;;12.10;8.85;;;9.90;66.10;;;8.64;65.98;101336.94;12167066;19;20386;-87
2022/11/25 12:37:37;;;;;;;14.02;9.48;;;10.00;66.20;;;8.67;65.98;101328.16;12179279;19;20432;-87
2022/11/25 12:41:58;;;;;;;11.57;8.95;;;10.10;66.50;;;8.61;65.89;101313.63;12177483;19;20450;-86
2022/11/25 12:46:35;;;;;;;13.70;9.60;;;10.10;66.50;;;8.75;65.77;101334.78;12174431;19;20308;-86
2022/11/25 12:51:00;;;;;;;16.38;10.52;;;10.10;66.50;;;8.55;65.81;101306.88;12163997;19;20398;-86
2022/11/25 12:55:26;;;;;;;13.35;9.35;;;10.20;66.40;;;8.74;65.82;101332.22;12160437;19;20961;-87
2022/11/25 13:00:01;;;;;;;15.15;9.68;;;10.10;66.10;;;8.82;65.73;101345.81;12160774;19;20379;-86
2022/11/25 13:04:43;;;;;;;13.68;9.85;;;10.10;66.20;;;8.80;65.88;101332.88;12165730;19;20323;-86
2022/11/25 13:09:03;;;;;;;13.25;9.73;;;10.10;66.00;;;8.83;65.81;101337.09;12164972;19;20043;-86
2022/11/25 13:13:29;;;;;;;16.05;10.10;;;10.20;66.00;;;8.82;65.71;101340.59;12155801;19;20311;-86
2022/11/25 13:17:39;;;;;;;18.42;10.43;;;10.20;66.10;;;8.78;65.89;101329.47;12164878;19;20029;-87
2022/11/25 13:22:22;;;;;;;13.70;9.25;;;10.20;65.90;;;8.76;65.76;101331.28;12157846;19;20022;-87
2022/11/25 13:26:34;;;;;;;18.00;9.98;;;10.20;66.00;;;8.85;65.84;101343.09;12160598;19;20320;-87
2022/11/25 13:30:38;;;;;;;14.65;10.18;;;10.20;66.10;;;8.62;66.00;101302.31;12158121;19;20022;-87
2022/11/25 13:34:40;;;;;;;12.75;9.30;;;10.20;66.00;;;8.63;65.96;101309.22;12156683;19;20646;-87
2022/11/25 13:39:11;;;;;;;16.08;9.13;;;10.20;66.10;;;8.78;65.83;101339.03;12165971;19;20010;-87
2022/11/25 13:43:21;;;;;;;15.00;9.15;;;10.20;66.20;;;8.86;65.88;101350.84;12157513;19;20098;-86
2022/11/25 13:47:39;;;;;;;18.45;9.00;;;10.20;66.20;;;8.75;65.86;101345.22;12157874;19;20295;-87
2022/11/25 13:51:50;;;;;;;13.35;9.30;;;10.20;66.20;;;8.77;65.89;101345.97;12153266;19;20027;-85
2022/11/25 13:55:55;;;;;;;15.93;8.68;;;10.20;66.20;;;8.67;66.05;101323.81;12156434;19;20386;-87
2022/11/25 14:00:18;;;;;;;14.03;8.70;;;10.20;66.00;;;8.94;65.87;101375.75;12155372;19;20275;-88
2022/11/25 14:04:57;;;;;;;12.38;8.63;;;10.20;66.20;;;8.56;65.79;101321.63;12133918;19;20206;-87
2022/11/25 14:09:27;;;;;;;12.50;8.23;;;10.20;66.20;;;8.89;65.97;101375.09;12158392;19;20014;-87
2022/11/25 14:13:37;;;;;;;10.48;7.68;;;10.20;66.00;;;8.97;65.97;101392.13;12159397;19;20382;-87
2022/11/25 14:18:04;;;;;;;12.35;7.78;;;10.30;66.10;;;8.98;65.99;101388.59;12162190;19;20014;-87
2022/11/25 14:22:37;;;;;;;10.00;7.50;;;10.30;66.10;;;9.00;65.91;101393.78;12155733;19;20913;-87
2022/11/25 14:26:40;;;;;;;10.30;7.80;;;10.30;66.20;;;8.97;66.00;101376.50;12160464;19;20672;-87
2022/11/25 14:30:52;;;;;;;12.15;7.15;;;10.30;66.00;;;8.93;65.88;101374.91;12144700;19;20019;-87
2022/11/25 14:35:15;;;;;;;11.00;8.38;;;10.30;66.00;;;8.99;65.74;101392.94;12160868;19;20375;-87
2022/11/25 14:39:27;;;;;;;10.68;6.95;;;10.30;66.00;;;8.97;65.81;101391.28;12163500;19;20809;-86
2022/11/25 14:43:36;;;;;;;11.40;7.68;;;10.30;65.90;;;8.88;65.90;101379.44;12160129;19;20022;-87
2022/11/25 14:47:37;;;;;;;11.80;7.10;;;10.30;65.90;;;8.88;65.86;101384.63;12156601;19;20022;-86
2022/11/25 14:51:40;;;;;;;10.98;7.47;;;10.30;65.80;;;8.96;65.90;101398.22;12161991;19;20024;-87
2022/11/25 14:55:47;;;;;;;9.23;6.97;;;10.30;65.80;;;8.99;65.80;101411.16;12175010;19;20367;-88
2022/11/25 14:59:50;;;;;;;8.98;6.15;;;10.30;65.70;;;8.94;65.92;101397.47;12170516;19;20042;-87
2022/11/25 15:04:17;;;;;;;8.15;5.50;;;10.20;65.60;;;8.84;65.92;101396.09;12156011;19;20617;-87
2022/11/25 15:08:20;;;;;;;6.72;5.28;;;10.20;65.60;;;8.83;65.86;101389.16;12169611;19;20019;-88
2022/11/25 15:12:30;;;;;;;8.90;6.40;;;10.30;65.50;;;8.89;65.93;101409.78;12169904;19;20022;-87
2022/11/25 15:16:40;;;;;;;7.80;5.85;;;10.20;65.50;;;8.90;65.79;101418.44;12175252;19;20026;-89
2022/11/25 15:20:58;;;;;;;8.57;6.75;;;10.40;65.60;;;8.86;65.70;101421.19;12164618;19;20422;-87
2022/11/25 15:25:13;;;;;;;7.60;6.07;;;10.20;65.40;;;8.89;65.80;101429.78;12171385;19;20018;-87
2022/11/25 15:29:14;;;;;;;7.27;6.07;;;10.20;65.40;;;8.86;65.97;101426.38;12167731;19;20047;-88
2022/11/25 15:33:16;;;;;;;7.38;6.07;;;10.20;65.40;;;8.91;65.92;101435.78;12163440;19;20394;-87
2022/11/25 15:37:18;;;;;;;6.88;5.50;;;10.20;65.10;;;8.84;65.81;101422.13;12171471;19;20781;-88
2022/11/25 15:41:41;;;;;;;8.25;5.72;;;10.20;65.10;;;8.88;65.81;101433.28;12142238;19;20018;-87
2022/11/25 15:45:45;;;;;;;9.43;5.65;;;10.20;65.10;;;8.84;65.74;101428.19;12139018;19;20022;-87
2022/11/25 15:50:30;;;;;;;8.57;5.67;;;10.20;65.20;;;8.85;65.76;101439.44;12128189;19;21151;-87
2022/11/25 15:54:43;;;;;;;6.80;4.93;;;10.20;65.10;;;8.83;65.76;101426.50;12123378;19;20019;-87
2022/11/25 15:58:44;;;;;;;6.85;5.65;;;10.20;65.10;;;8.55;65.66;101376.31;12131305;19;20029;-87
2022/11/25 16:02:46;;;;;;;6.10;5.18;;;10.20;65.00;;;8.91;65.75;101440.97;12139309;19;20022;-87
2022/11/25 16:06:56;;;;;;;10.27;5.97;;;10.20;64.80;;;8.80;65.55;101439.63;12154154;19;20272;-88
2022/11/25 16:11:15;;;;;;;8.13;5.43;;;10.10;64.70;;;8.82;65.77;101442.16;12155268;19;20011;-87
2022/11/25 16:15:17;;;;;;;6.15;4.88;;;10.10;64.60;;;8.61;65.61;101408.22;12169102;19;20298;-87
2022/11/25 16:19:22;;;;;;;10.70;4.68;;;10.10;64.60;;;8.51;65.92;101400.78;12170950;19;20030;-88
2022/11/25 16:23:25;;;;;;;;;;;10.10;65.40;;;8.48;65.74;101401.75;12166769;19;20097;-88
2022/11/25 16:27:28;;;;;;;4.78;3.92;;;10.10;64.70;;;8.71;65.86;101434.75;12170443;19;20219;-87
2022/11/25 16:31:29;;;;;;;5.38;4.78;;;10.10;64.50;;;8.45;65.71;101398.38;12169532;19;20618;-88
2022/11/25 16:35:35;;;;;;;5.82;4.25;;;10.10;64.50;;;8.68;65.88;101442.66;12166025;19;20784;-88
2022/11/25 16:39:37;;;;;;;;;;;10.00;64.40;;;8.61;65.52;101438.56;12164198;19;20023;-87
2022/11/25 16:43:40;;;;;;;4.65;4.03;;;10.00;64.50;;;8.36;65.78;101400.38;12166252;19;19926;-87
2022/11/25 16:47:42;;;;;;;6.72;4.65;;;10.00;64.30;;;8.72;65.76;101459.91;12162853;19;20018;-88
2022/11/25 16:51:44;;;;;;;5.20;4.50;;;10.00;64.30;;;8.67;65.60;101455.72;12152579;19;20018;-88
2022/11/25 16:55:48;;;;;;;5.05;4.28;;;9.90;64.30;;;8.66;65.66;101460.09;12162319;19;20015;-88
2022/11/25 16:59:50;;;;;;;6.03;5.10;;;9.90;64.30;;;8.67;65.80;101460.94;12162450;19;20603;-88
2022/11/25 17:03:52;;;;;;;4.88;4.30;;;9.90;64.30;;;8.68;65.69;101457.44;12162104;19;20014;-88
2022/11/25 17:07:54;;;;;;;4.65;4.15;;;10.00;64.40;;;8.61;65.81;101449.00;12161483;19;20850;-88
2022/11/25 17:11:56;;;;;;;5.57;4.85;;;10.00;64.40;;;8.61;65.73;101451.59;12153309;19;20022;-88
2022/11/25 17:15:58;;;;;;;5.32;4.32;;;9.90;64.40;;;8.59;65.76;101454.28;12158831;19;20252;-88
2022/11/25 17:20:00;;;;;;;4.45;4.03;;;9.90;64.50;;;8.68;65.64;101473.91;12161996;19;20010;-88
2022/11/25 17:24:13;;;;;;;5.78;4.80;;;9.90;64.40;;;8.59;65.82;101462.06;12163142;19;20019;-88
2022/11/25 17:28:19;;;;;;;6.07;4.38;;;9.90;64.30;;;8.60;65.65;101465.53;12163241;19;20014;-88
2022/11/25 17:32:22;;;;;;;5.95;5.22;;;9.90;64.20;;;8.65;65.74;101481.84;12155816;19;20022;-88